sensor_id;sensor_type;location;lat;lon;timestamp;pressure;altitude;pressure_sealevel;temperature;humidity
70930;BME280;58588;48.102;19.682;2023-08-08T00:00:06;99334.34;;;15.28;100.00
70930;BME280;58588;48.102;19.682;2023-08-08T00:03:11;99333.78;;;15.44;100.00
70930;BME280;58588;48.102;19.682;2023-08-08T00:06:12;99335.00;;;15.23;100.00
70930;BME280;58588;48.102;19.682;2023-08-08T00:09:14;99340.72;;;15.40;100.00
70930;BME280;58588;48.102;19.682;2023-08-08T00:12:18;99344.06;;;15.42;100.00
70930;BME280;58588;48.102;19.682;2023-08-08T00:15:19;99344.59;;;15.51;100.00
70930;BME280;58588;48.102;19.682;2023-08-08T00:18:21;99335.09;;;15.42;100.00
70930;BME280;58588;48.102;19.682;2023-08-08T00:21:23;99335.78;;;15.31;100.00
70930;BME280;58588;48.102;19.682;2023-08-08T00:24:25;99337.75;;;15.17;100.00
70930;BME280;58588;48.102;19.682;2023-08-08T00:27:28;99340.97;;;15.07;100.00
70930;BME280;58588;48.102;19.682;2023-08-08T00:30:30;99336.59;;;15.06;100.00
70930;BME280;58588;48.102;19.682;2023-08-08T00:33:32;99352.06;;;14.99;100.00
70930;BME280;58588;48.102;19.682;2023-08-08T00:36:34;99349.50;;;15.11;100.00
70930;BME280;58588;48.102;19.682;2023-08-08T00:39:36;99348.09;;;15.02;100.00
70930;BME280;58588;48.102;19.682;2023-08-08T00:42:39;99363.19;;;15.22;100.00
70930;BME280;58588;48.102;19.682;2023-08-08T00:45:42;99359.56;;;15.35;100.00
70930;BME280;58588;48.102;19.682;2023-08-08T00:48:46;99354.22;;;15.22;100.00
70930;BME280;58588;48.102;19.682;2023-08-08T00:51:48;99352.66;;;15.08;100.00
70930;BME280;58588;48.102;19.682;2023-08-08T00:54:50;99355.78;;;15.05;100.00
70930;BME280;58588;48.102;19.682;2023-08-08T00:57:53;99367.72;;;15.04;100.00
70930;BME280;58588;48.102;19.682;2023-08-08T01:00:55;99365.19;;;15.09;100.00
70930;BME280;58588;48.102;19.682;2023-08-08T01:04:00;99360.63;;;15.03;100.00
70930;BME280;58588;48.102;19.682;2023-08-08T01:07:20;99361.22;;;15.05;100.00
70930;BME280;58588;48.102;19.682;2023-08-08T01:10:29;99358.31;;;15.06;100.00
70930;BME280;58588;48.102;19.682;2023-08-08T01:13:35;99363.78;;;14.93;100.00
70930;BME280;58588;48.102;19.682;2023-08-08T01:16:39;99364.13;;;15.10;100.00
70930;BME280;58588;48.102;19.682;2023-08-08T01:19:42;99360.75;;;15.14;100.00
70930;BME280;58588;48.102;19.682;2023-08-08T01:22:50;99358.59;;;15.30;100.00
70930;BME280;58588;48.102;19.682;2023-08-08T01:25:53;99365.91;;;15.22;100.00
70930;BME280;58588;48.102;19.682;2023-08-08T01:28:56;99360.84;;;15.33;100.00
70930;BME280;58588;48.102;19.682;2023-08-08T01:31:58;99365.03;;;15.29;100.00
70930;BME280;58588;48.102;19.682;2023-08-08T01:35:00;99369.31;;;15.18;100.00
70930;BME280;58588;48.102;19.682;2023-08-08T01:38:08;99366.97;;;14.90;100.00
70930;BME280;58588;48.102;19.682;2023-08-08T01:41:16;99373.00;;;14.92;100.00
70930;BME280;58588;48.102;19.682;2023-08-08T01:44:19;99377.03;;;14.83;100.00
70930;BME280;58588;48.102;19.682;2023-08-08T01:47:21;99368.91;;;14.76;100.00
70930;BME280;58588;48.102;19.682;2023-08-08T01:50:23;99373.66;;;14.81;100.00
70930;BME280;58588;48.102;19.682;2023-08-08T01:53:26;99384.56;;;14.74;100.00
70930;BME280;58588;48.102;19.682;2023-08-08T01:56:29;99383.94;;;14.79;100.00
70930;BME280;58588;48.102;19.682;2023-08-08T01:59:32;99385.97;;;14.90;100.00
70930;BME280;58588;48.102;19.682;2023-08-08T02:02:34;99388.94;;;14.82;100.00
70930;BME280;58588;48.102;19.682;2023-08-08T02:05:37;99397.06;;;14.82;100.00
70930;BME280;58588;48.102;19.682;2023-08-08T02:08:39;99397.72;;;14.77;100.00
70930;BME280;58588;48.102;19.682;2023-08-08T02:11:42;99410.25;;;14.71;100.00
70930;BME280;58588;48.102;19.682;2023-08-08T02:14:44;99397.06;;;14.75;100.00
70930;BME280;58588;48.102;19.682;2023-08-08T02:17:46;99403.84;;;14.46;100.00
70930;BME280;58588;48.102;19.682;2023-08-08T02:20:48;99415.53;;;14.60;100.00
70930;BME280;58588;48.102;19.682;2023-08-08T02:23:50;99411.34;;;14.44;100.00
70930;BME280;58588;48.102;19.682;2023-08-08T02:26:53;99410.13;;;14.40;100.00
70930;BME280;58588;48.102;19.682;2023-08-08T02:29:55;99409.09;;;14.34;100.00
70930;BME280;58588;48.102;19.682;2023-08-08T02:32:57;99418.88;;;14.42;100.00
70930;BME280;58588;48.102;19.682;2023-08-08T02:35:59;99408.88;;;14.49;100.00
70930;BME280;58588;48.102;19.682;2023-08-08T02:39:02;99408.88;;;14.36;100.00
70930;BME280;58588;48.102;19.682;2023-08-08T02:42:06;99408.91;;;14.29;100.00
70930;BME280;58588;48.102;19.682;2023-08-08T02:45:08;99408.91;;;14.29;100.00
70930;BME280;58588;48.102;19.682;2023-08-08T02:48:10;99402.03;;;14.20;100.00
70930;BME280;58588;48.102;19.682;2023-08-08T02:51:12;99414.75;;;14.19;100.00
70930;BME280;58588;48.102;19.682;2023-08-08T02:54:14;99417.88;;;14.23;100.00
70930;BME280;58588;48.102;19.682;2023-08-08T02:57:17;99415.78;;;14.25;100.00
70930;BME280;58588;48.102;19.682;2023-08-08T03:00:19;99419.78;;;14.03;100.00
70930;BME280;58588;48.102;19.682;2023-08-08T03:03:21;99421.66;;;13.96;100.00
70930;BME280;58588;48.102;19.682;2023-08-08T03:06:25;99435.84;;;13.98;100.00
70930;BME280;58588;48.102;19.682;2023-08-08T03:09:29;99425.44;;;13.81;100.00
70930;BME280;58588;48.102;19.682;2023-08-08T03:12:33;99431.06;;;13.86;100.00
70930;BME280;58588;48.102;19.682;2023-08-08T03:15:34;99435.66;;;13.86;100.00
70930;BME280;58588;48.102;19.682;2023-08-08T03:18:36;99440.22;;;13.85;100.00
70930;BME280;58588;48.102;19.682;2023-08-08T03:21:40;99442.72;;;13.87;100.00
70930;BME280;58588;48.102;19.682;2023-08-08T03:24:42;99439.59;;;13.83;100.00
70930;BME280;58588;48.102;19.682;2023-08-08T03:27:46;99436.66;;;13.78;100.00
70930;BME280;58588;48.102;19.682;2023-08-08T03:30:47;99440.63;;;13.62;100.00
70930;BME280;58588;48.102;19.682;2023-08-08T03:33:49;99453.34;;;13.62;100.00
70930;BME280;58588;48.102;19.682;2023-08-08T03:36:51;99468.56;;;13.70;100.00
70930;BME280;58588;48.102;19.682;2023-08-08T03:39:53;99459.16;;;13.79;100.00
70930;BME280;58588;48.102;19.682;2023-08-08T03:42:56;99466.06;;;13.75;100.00
70930;BME280;58588;48.102;19.682;2023-08-08T03:45:58;99459.59;;;13.69;100.00
70930;BME280;58588;48.102;19.682;2023-08-08T03:49:00;99460.22;;;13.71;100.00
70930;BME280;58588;48.102;19.682;2023-08-08T03:52:03;99466.69;;;13.77;100.00
70930;BME280;58588;48.102;19.682;2023-08-08T03:55:05;99463.13;;;13.70;100.00
70930;BME280;58588;48.102;19.682;2023-08-08T03:58:08;99469.59;;;13.82;100.00
70930;BME280;58588;48.102;19.682;2023-08-08T04:01:10;99466.47;;;13.78;100.00
70930;BME280;58588;48.102;19.682;2023-08-08T04:04:12;99469.00;;;13.86;100.00
70930;BME280;58588;48.102;19.682;2023-08-08T04:07:14;99471.69;;;13.86;100.00
70930;BME280;58588;48.102;19.682;2023-08-08T04:10:16;99472.31;;;13.88;100.00
70930;BME280;58588;48.102;19.682;2023-08-08T04:13:19;99495.06;;;13.94;100.00
70930;BME280;58588;48.102;19.682;2023-08-08T04:16:21;99503.78;;;13.89;100.00
70930;BME280;58588;48.102;19.682;2023-08-08T04:19:23;99510.47;;;14.13;100.00
70930;BME280;58588;48.102;19.682;2023-08-08T04:22:25;99503.78;;;14.03;100.00
70930;BME280;58588;48.102;19.682;2023-08-08T04:25:27;99509.22;;;13.96;100.00
70930;BME280;58588;48.102;19.682;2023-08-08T04:28:30;99520.28;;;14.08;100.00
70930;BME280;58588;48.102;19.682;2023-08-08T04:31:32;99534.03;;;14.19;100.00
70930;BME280;58588;48.102;19.682;2023-08-08T04:34:34;99533.81;;;14.21;100.00
70930;BME280;58588;48.102;19.682;2023-08-08T04:37:36;99543.00;;;14.20;100.00
70930;BME280;58588;48.102;19.682;2023-08-08T04:40:38;99530.09;;;14.15;100.00
70930;BME280;58588;48.102;19.682;2023-08-08T04:43:41;99536.13;;;14.17;100.00
70930;BME280;58588;48.102;19.682;2023-08-08T04:46:43;99539.06;;;14.16;100.00
70930;BME280;58588;48.102;19.682;2023-08-08T04:49:45;99541.97;;;14.14;100.00
70930;BME280;58588;48.102;19.682;2023-08-08T04:52:47;99563.66;;;14.08;100.00
70930;BME280;58588;48.102;19.682;2023-08-08T04:55:49;99562.81;;;14.07;100.00
70930;BME280;58588;48.102;19.682;2023-08-08T04:58:52;99559.50;;;14.25;100.00
70930;BME280;58588;48.102;19.682;2023-08-08T05:01:54;99575.75;;;14.38;100.00
70930;BME280;58588;48.102;19.682;2023-08-08T05:04:56;99571.78;;;14.21;100.00
70930;BME280;58588;48.102;19.682;2023-08-08T05:07:58;99573.88;;;14.06;100.00
70930;BME280;58588;48.102;19.682;2023-08-08T05:10:59;99582.63;;;14.21;100.00
70930;BME280;58588;48.102;19.682;2023-08-08T05:14:03;99585.16;;;14.36;100.00
70930;BME280;58588;48.102;19.682;2023-08-08T05:17:05;99582.88;;;14.39;100.00
70930;BME280;58588;48.102;19.682;2023-08-08T05:20:08;99582.66;;;14.41;100.00
70930;BME280;58588;48.102;19.682;2023-08-08T05:23:10;99591.66;;;14.48;100.00
70930;BME280;58588;48.102;19.682;2023-08-08T05:26:13;99587.66;;;14.44;100.00
70930;BME280;58588;48.102;19.682;2023-08-08T05:29:16;99592.91;;;14.45;100.00
70930;BME280;58588;48.102;19.682;2023-08-08T05:32:18;99598.28;;;14.39;100.00
70930;BME280;58588;48.102;19.682;2023-08-08T05:35:20;99597.31;;;14.60;100.00
70930;BME280;58588;48.102;19.682;2023-08-08T05:38:22;99590.81;;;14.61;100.00
70930;BME280;58588;48.102;19.682;2023-08-08T05:41:24;99594.56;;;14.73;100.00
70930;BME280;58588;48.102;19.682;2023-08-08T05:44:27;99591.22;;;14.84;100.00
70930;BME280;58588;48.102;19.682;2023-08-08T05:47:29;99598.28;;;14.92;100.00
70930;BME280;58588;48.102;19.682;2023-08-08T05:50:31;99599.09;;;15.12;100.00
70930;BME280;58588;48.102;19.682;2023-08-08T05:53:33;99594.72;;;15.05;100.00
70930;BME280;58588;48.102;19.682;2023-08-08T05:56:35;99606.38;;;15.25;100.00
70930;BME280;58588;48.102;19.682;2023-08-08T05:59:39;99605.09;;;15.34;100.00
70930;BME280;58588;48.102;19.682;2023-08-08T06:02:41;99610.50;;;15.47;100.00
70930;BME280;58588;48.102;19.682;2023-08-08T06:05:43;99604.38;;;15.52;100.00
70930;BME280;58588;48.102;19.682;2023-08-08T06:08:45;99603.66;;;15.83;100.00
70930;BME280;58588;48.102;19.682;2023-08-08T06:11:47;99606.41;;;15.76;100.00
70930;BME280;58588;48.102;19.682;2023-08-08T06:14:50;99597.41;;;15.76;100.00
70930;BME280;58588;48.102;19.682;2023-08-08T06:17:52;99605.22;;;16.04;100.00
70930;BME280;58588;48.102;19.682;2023-08-08T06:20:54;99610.47;;;15.99;100.00
70930;BME280;58588;48.102;19.682;2023-08-08T06:23:56;99611.56;;;16.23;100.00
70930;BME280;58588;48.102;19.682;2023-08-08T06:26:58;99606.81;;;16.43;100.00
70930;BME280;58588;48.102;19.682;2023-08-08T06:30:01;99602.16;;;16.50;100.00
70930;BME280;58588;48.102;19.682;2023-08-08T06:33:04;99603.88;;;16.70;100.00
70930;BME280;58588;48.102;19.682;2023-08-08T06:36:06;99595.56;;;16.65;100.00
70930;BME280;58588;48.102;19.682;2023-08-08T06:39:08;99605.28;;;17.04;100.00
70930;BME280;58588;48.102;19.682;2023-08-08T06:42:11;99602.00;;;16.95;100.00
70930;BME280;58588;48.102;19.682;2023-08-08T06:45:15;99594.00;;;17.19;100.00
70930;BME280;58588;48.102;19.682;2023-08-08T06:48:17;99585.81;;;17.37;100.00
70930;BME280;58588;48.102;19.682;2023-08-08T06:51:18;99594.06;;;17.49;100.00
70930;BME280;58588;48.102;19.682;2023-08-08T06:54:20;99594.19;;;17.90;100.00
70930;BME280;58588;48.102;19.682;2023-08-08T06:57:22;99587.72;;;18.03;100.00
70930;BME280;58588;48.102;19.682;2023-08-08T07:00:25;99585.34;;;18.07;100.00
70930;BME280;58588;48.102;19.682;2023-08-08T07:03:28;99582.78;;;18.12;100.00
70930;BME280;58588;48.102;19.682;2023-08-08T07:06:30;99593.81;;;18.29;100.00
70930;BME280;58588;48.102;19.682;2023-08-08T07:09:32;99594.63;;;18.71;100.00
70930;BME280;58588;48.102;19.682;2023-08-08T07:12:37;99586.53;;;18.64;100.00
70930;BME280;58588;48.102;19.682;2023-08-08T07:15:41;99594.88;;;18.93;100.00
70930;BME280;58588;48.102;19.682;2023-08-08T07:18:43;99579.44;;;19.10;100.00
70930;BME280;58588;48.102;19.682;2023-08-08T07:21:44;99585.34;;;19.83;100.00
70930;BME280;58588;48.102;19.682;2023-08-08T07:24:47;99585.13;;;20.01;100.00
70930;BME280;58588;48.102;19.682;2023-08-08T07:27:49;99577.78;;;20.18;100.00
70930;BME280;58588;48.102;19.682;2023-08-08T07:30:52;99578.88;;;20.17;100.00
70930;BME280;58588;48.102;19.682;2023-08-08T07:33:54;99582.78;;;20.38;100.00
70930;BME280;58588;48.102;19.682;2023-08-08T07:36:56;99574.88;;;20.53;100.00
70930;BME280;58588;48.102;19.682;2023-08-08T07:39:57;99574.91;;;20.92;100.00
70930;BME280;58588;48.102;19.682;2023-08-08T07:42:59;99570.44;;;21.25;100.00
70930;BME280;58588;48.102;19.682;2023-08-08T07:46:03;99570.78;;;20.73;100.00
70930;BME280;58588;48.102;19.682;2023-08-08T07:49:05;99571.63;;;21.51;100.00
70930;BME280;58588;48.102;19.682;2023-08-08T07:52:07;99578.00;;;21.78;96.10
70930;BME280;58588;48.102;19.682;2023-08-08T07:55:09;99556.19;;;20.67;96.81
70930;BME280;58588;48.102;19.682;2023-08-08T07:58:11;99565.00;;;20.69;97.57
70930;BME280;58588;48.102;19.682;2023-08-08T08:01:14;99573.09;;;21.36;98.46
70930;BME280;58588;48.102;19.682;2023-08-08T08:04:17;99567.84;;;21.35;96.36
70930;BME280;58588;48.102;19.682;2023-08-08T08:07:18;99578.31;;;21.82;95.32
70930;BME280;58588;48.102;19.682;2023-08-08T08:10:20;99576.63;;;22.03;93.18
70930;BME280;58588;48.102;19.682;2023-08-08T08:13:22;99575.97;;;21.69;92.33
70930;BME280;58588;48.102;19.682;2023-08-08T08:16:26;99579.91;;;22.05;91.34
70930;BME280;58588;48.102;19.682;2023-08-08T08:19:27;99574.88;;;21.70;89.35
70930;BME280;58588;48.102;19.682;2023-08-08T08:22:29;99569.63;;;22.17;90.02
70930;BME280;58588;48.102;19.682;2023-08-08T08:25:31;99563.81;;;22.78;90.50
70930;BME280;58588;48.102;19.682;2023-08-08T08:28:33;99569.97;;;22.53;89.66
70930;BME280;58588;48.102;19.682;2023-08-08T08:31:36;99563.94;;;23.35;87.43
70930;BME280;58588;48.102;19.682;2023-08-08T08:34:39;99571.84;;;22.84;86.61
70930;BME280;58588;48.102;19.682;2023-08-08T08:37:41;99577.06;;;22.49;86.24
70930;BME280;58588;48.102;19.682;2023-08-08T08:40:43;99569.94;;;23.32;86.75
70930;BME280;58588;48.102;19.682;2023-08-08T08:43:48;99572.41;;;23.23;80.36
70930;BME280;58588;48.102;19.682;2023-08-08T08:46:53;99576.19;;;23.65;77.78
70930;BME280;58588;48.102;19.682;2023-08-08T08:49:57;99569.66;;;23.96;74.87
70930;BME280;58588;48.102;19.682;2023-08-08T08:53:00;99569.63;;;23.86;74.36
70930;BME280;58588;48.102;19.682;2023-08-08T08:56:03;99563.88;;;23.88;73.64
70930;BME280;58588;48.102;19.682;2023-08-08T08:59:05;99570.75;;;23.90;70.65
70930;BME280;58588;48.102;19.682;2023-08-08T09:02:10;99577.44;;;24.20;70.71
70930;BME280;58588;48.102;19.682;2023-08-08T09:05:13;99582.91;;;24.15;71.16
70930;BME280;58588;48.102;19.682;2023-08-08T09:08:16;99579.47;;;23.62;71.08
70930;BME280;58588;48.102;19.682;2023-08-08T09:11:18;99588.97;;;24.01;72.11
70930;BME280;58588;48.102;19.682;2023-08-08T09:14:22;99585.69;;;24.25;72.72
70930;BME280;58588;48.102;19.682;2023-08-08T09:17:27;99586.94;;;23.71;70.21
70930;BME280;58588;48.102;19.682;2023-08-08T09:20:29;99587.94;;;24.64;69.95
70930;BME280;58588;48.102;19.682;2023-08-08T09:23:31;99590.13;;;24.77;68.91
70930;BME280;58588;48.102;19.682;2023-08-08T09:26:33;99590.16;;;24.36;71.22
70930;BME280;58588;48.102;19.682;2023-08-08T09:29:37;99597.06;;;24.90;72.31
70930;BME280;58588;48.102;19.682;2023-08-08T09:32:43;99590.44;;;24.91;70.33
70930;BME280;58588;48.102;19.682;2023-08-08T09:35:45;99601.44;;;24.70;74.27
70930;BME280;58588;48.102;19.682;2023-08-08T09:38:47;99593.41;;;25.25;71.92
70930;BME280;58588;48.102;19.682;2023-08-08T09:41:49;99598.41;;;24.92;76.91
70930;BME280;58588;48.102;19.682;2023-08-08T09:44:51;99594.56;;;24.78;72.72
70930;BME280;58588;48.102;19.682;2023-08-08T09:47:54;99596.75;;;25.01;74.24
70930;BME280;58588;48.102;19.682;2023-08-08T09:50:58;99622.69;;;24.65;71.50
70930;BME280;58588;48.102;19.682;2023-08-08T09:54:01;99607.78;;;25.06;72.60
70930;BME280;58588;48.102;19.682;2023-08-08T09:57:03;99602.19;;;25.42;72.59
70930;BME280;58588;48.102;19.682;2023-08-08T10:00:06;99607.75;;;25.37;68.64
70930;BME280;58588;48.102;19.682;2023-08-08T10:03:18;99609.72;;;24.70;71.66
70930;BME280;58588;48.102;19.682;2023-08-08T10:06:20;99604.47;;;24.59;71.69
70930;BME280;58588;48.102;19.682;2023-08-08T10:09:23;99597.34;;;25.88;72.20
70930;BME280;58588;48.102;19.682;2023-08-08T10:12:26;99600.63;;;24.75;71.13
70930;BME280;58588;48.102;19.682;2023-08-08T10:15:28;99590.91;;;24.06;71.27
70930;BME280;58588;48.102;19.682;2023-08-08T10:18:32;99593.91;;;25.42;73.41
70930;BME280;58588;48.102;19.682;2023-08-08T10:21:34;99589.59;;;24.95;73.51
70930;BME280;58588;48.102;19.682;2023-08-08T10:24:38;99575.69;;;25.46;69.53
70930;BME280;58588;48.102;19.682;2023-08-08T10:27:39;99572.50;;;25.83;68.03
70930;BME280;58588;48.102;19.682;2023-08-08T10:30:42;99584.94;;;25.86;65.97
70930;BME280;58588;48.102;19.682;2023-08-08T10:33:46;99573.59;;;24.87;63.38
70930;BME280;58588;48.102;19.682;2023-08-08T10:36:51;99577.41;;;25.27;66.58
70930;BME280;58588;48.102;19.682;2023-08-08T10:39:54;99569.69;;;25.24;64.65
70930;BME280;58588;48.102;19.682;2023-08-08T10:42:58;99578.97;;;25.48;64.86
70930;BME280;58588;48.102;19.682;2023-08-08T10:46:01;99570.66;;;25.58;65.96
70930;BME280;58588;48.102;19.682;2023-08-08T10:49:05;99573.72;;;25.57;66.23
70930;BME280;58588;48.102;19.682;2023-08-08T10:52:13;99573.13;;;25.60;67.04
70930;BME280;58588;48.102;19.682;2023-08-08T10:55:20;99571.13;;;24.96;67.25
70930;BME280;58588;48.102;19.682;2023-08-08T10:58:22;99575.09;;;25.54;66.38
70930;BME280;58588;48.102;19.682;2023-08-08T11:01:25;99583.25;;;25.10;68.76
70930;BME280;58588;48.102;19.682;2023-08-08T11:04:28;99571.06;;;24.04;70.13
70930;BME280;58588;48.102;19.682;2023-08-08T11:07:32;99575.41;;;25.43;67.82
70930;BME280;58588;48.102;19.682;2023-08-08T11:10:35;99574.19;;;26.24;63.77
70930;BME280;58588;48.102;19.682;2023-08-08T11:13:37;99574.34;;;25.39;65.74
70930;BME280;58588;48.102;19.682;2023-08-08T11:16:40;99574.88;;;25.41;68.39
70930;BME280;58588;48.102;19.682;2023-08-08T11:19:43;99558.47;;;25.75;68.24
70930;BME280;58588;48.102;19.682;2023-08-08T11:22:45;99569.47;;;25.85;66.43
70930;BME280;58588;48.102;19.682;2023-08-08T11:25:47;99585.19;;;24.38;64.63
70930;BME280;58588;48.102;19.682;2023-08-08T11:28:50;99578.03;;;24.37;66.50
70930;BME280;58588;48.102;19.682;2023-08-08T11:31:52;99580.25;;;23.52;69.08
70930;BME280;58588;48.102;19.682;2023-08-08T11:34:56;99579.91;;;24.11;67.84
70930;BME280;58588;48.102;19.682;2023-08-08T11:37:58;99573.63;;;24.62;68.02
70930;BME280;58588;48.102;19.682;2023-08-08T11:41:01;99589.06;;;24.37;66.84
70930;BME280;58588;48.102;19.682;2023-08-08T11:44:03;99580.78;;;24.73;67.96
70930;BME280;58588;48.102;19.682;2023-08-08T11:47:07;99582.41;;;24.33;65.07
70930;BME280;58588;48.102;19.682;2023-08-08T11:50:10;99585.72;;;24.81;65.82
70930;BME280;58588;48.102;19.682;2023-08-08T11:53:12;99581.34;;;24.44;66.89
70930;BME280;58588;48.102;19.682;2023-08-08T11:56:14;99585.16;;;24.94;66.51
70930;BME280;58588;48.102;19.682;2023-08-08T11:59:19;99593.94;;;23.99;67.14
70930;BME280;58588;48.102;19.682;2023-08-08T12:02:22;99593.56;;;23.70;67.66
70930;BME280;58588;48.102;19.682;2023-08-08T12:05:26;99592.88;;;24.31;69.26
70930;BME280;58588;48.102;19.682;2023-08-08T12:08:30;99583.25;;;24.90;69.83
70930;BME280;58588;48.102;19.682;2023-08-08T12:11:34;99592.84;;;24.16;65.75
70930;BME280;58588;48.102;19.682;2023-08-08T12:14:37;99581.47;;;23.87;68.79
70930;BME280;58588;48.102;19.682;2023-08-08T12:17:39;99583.25;;;24.39;70.56
70930;BME280;58588;48.102;19.682;2023-08-08T12:20:43;99576.63;;;25.06;69.46
70930;BME280;58588;48.102;19.682;2023-08-08T12:23:44;99576.59;;;25.01;69.74
70930;BME280;58588;48.102;19.682;2023-08-08T12:26:46;99577.47;;;24.76;65.47
70930;BME280;58588;48.102;19.682;2023-08-08T12:29:48;99569.97;;;25.22;62.90
70930;BME280;58588;48.102;19.682;2023-08-08T12:32:50;99568.66;;;24.79;63.37
70930;BME280;58588;48.102;19.682;2023-08-08T12:35:55;99566.16;;;25.78;62.12
70930;BME280;58588;48.102;19.682;2023-08-08T12:38:57;99563.47;;;26.85;64.92
70930;BME280;58588;48.102;19.682;2023-08-08T12:41:59;99556.28;;;26.55;60.84
70930;BME280;58588;48.102;19.682;2023-08-08T12:45:01;99549.53;;;25.93;58.69
70930;BME280;58588;48.102;19.682;2023-08-08T12:48:04;99554.84;;;26.24;61.67
70930;BME280;58588;48.102;19.682;2023-08-08T12:51:08;99555.75;;;26.82;62.59
70930;BME280;58588;48.102;19.682;2023-08-08T12:54:10;99555.97;;;26.86;61.13
70930;BME280;58588;48.102;19.682;2023-08-08T12:57:11;99560.53;;;26.37;63.00
70930;BME280;58588;48.102;19.682;2023-08-08T13:00:14;99568.38;;;24.80;64.43
70930;BME280;58588;48.102;19.682;2023-08-08T13:03:16;99555.34;;;25.22;64.67
70930;BME280;58588;48.102;19.682;2023-08-08T13:06:20;99556.13;;;25.38;65.40
70930;BME280;58588;48.102;19.682;2023-08-08T13:09:21;99558.00;;;25.47;64.10
70930;BME280;58588;48.102;19.682;2023-08-08T13:12:23;99555.38;;;25.01;63.20
70930;BME280;58588;48.102;19.682;2023-08-08T13:15:25;99565.56;;;25.11;64.50
70930;BME280;58588;48.102;19.682;2023-08-08T13:18:27;99553.44;;;24.97;66.70
70930;BME280;58588;48.102;19.682;2023-08-08T13:21:31;99550.41;;;24.93;63.97
70930;BME280;58588;48.102;19.682;2023-08-08T13:24:32;99553.16;;;25.03;65.93
70930;BME280;58588;48.102;19.682;2023-08-08T13:27:34;99547.16;;;24.40;64.52
70930;BME280;58588;48.102;19.682;2023-08-08T13:30:36;99561.16;;;24.28;66.88
70930;BME280;58588;48.102;19.682;2023-08-08T13:33:38;99558.13;;;24.10;68.30
70930;BME280;58588;48.102;19.682;2023-08-08T13:36:42;99547.13;;;23.32;67.09
70930;BME280;58588;48.102;19.682;2023-08-08T13:39:44;99553.91;;;23.71;70.14
70930;BME280;58588;48.102;19.682;2023-08-08T13:42:46;99546.19;;;23.68;70.71
70930;BME280;58588;48.102;19.682;2023-08-08T13:45:50;99552.13;;;23.45;71.37
70930;BME280;58588;48.102;19.682;2023-08-08T13:48:52;99548.59;;;23.02;70.32
70930;BME280;58588;48.102;19.682;2023-08-08T13:51:56;99548.59;;;22.97;74.30
70930;BME280;58588;48.102;19.682;2023-08-08T13:54:58;99548.28;;;22.56;72.63
70930;BME280;58588;48.102;19.682;2023-08-08T13:58:00;99552.09;;;22.50;74.64
70930;BME280;58588;48.102;19.682;2023-08-08T14:01:02;99548.75;;;22.48;75.30
70930;BME280;58588;48.102;19.682;2023-08-08T14:04:04;99554.28;;;22.85;75.12
70930;BME280;58588;48.102;19.682;2023-08-08T14:07:08;99551.16;;;23.14;74.92
70930;BME280;58588;48.102;19.682;2023-08-08T14:10:10;99549.72;;;22.64;74.93
70930;BME280;58588;48.102;19.682;2023-08-08T14:13:12;99550.53;;;23.02;75.91
70930;BME280;58588;48.102;19.682;2023-08-08T14:16:13;99552.59;;;22.84;74.33
70930;BME280;58588;48.102;19.682;2023-08-08T14:19:15;99552.34;;;22.86;74.47
70930;BME280;58588;48.102;19.682;2023-08-08T14:22:19;99544.72;;;22.93;73.26
70930;BME280;58588;48.102;19.682;2023-08-08T14:25:21;99553.47;;;24.30;72.60
70930;BME280;58588;48.102;19.682;2023-08-08T14:28:23;99548.19;;;25.21;66.98
70930;BME280;58588;48.102;19.682;2023-08-08T14:34:29;99552.47;;;26.51;61.79
70930;BME280;58588;48.102;19.682;2023-08-08T14:37:34;99554.97;;;26.48;60.74
70930;BME280;58588;48.102;19.682;2023-08-08T14:40:38;99546.53;;;25.20;63.25
70930;BME280;58588;48.102;19.682;2023-08-08T14:43:40;99547.22;;;25.56;63.21
70930;BME280;58588;48.102;19.682;2023-08-08T14:46:41;99560.59;;;25.18;63.82
70930;BME280;58588;48.102;19.682;2023-08-08T14:49:43;99554.91;;;26.53;63.36
70930;BME280;58588;48.102;19.682;2023-08-08T14:52:47;99548.47;;;27.63;63.06
70930;BME280;58588;48.102;19.682;2023-08-08T14:55:48;99550.75;;;27.37;58.83
70930;BME280;58588;48.102;19.682;2023-08-08T14:58:50;99540.50;;;26.85;59.94
70930;BME280;58588;48.102;19.682;2023-08-08T15:01:52;99536.91;;;26.55;61.33
70930;BME280;58588;48.102;19.682;2023-08-08T15:04:54;99541.66;;;26.79;61.53
70930;BME280;58588;48.102;19.682;2023-08-08T15:07:57;99535.88;;;27.04;60.60
70930;BME280;58588;48.102;19.682;2023-08-08T15:10:59;99538.06;;;27.98;60.75
70930;BME280;58588;48.102;19.682;2023-08-08T15:14:01;99540.16;;;28.25;59.64
70930;BME280;58588;48.102;19.682;2023-08-08T15:17:04;99542.44;;;28.56;57.17
70930;BME280;58588;48.102;19.682;2023-08-08T15:20:07;99544.19;;;28.14;57.07
70930;BME280;58588;48.102;19.682;2023-08-08T15:23:11;99536.81;;;27.66;59.04
70930;BME280;58588;48.102;19.682;2023-08-08T15:26:14;99530.41;;;29.20;58.99
70930;BME280;58588;48.102;19.682;2023-08-08T15:29:19;99531.47;;;30.38;57.78
70930;BME280;58588;48.102;19.682;2023-08-08T15:32:21;99521.19;;;31.01;53.91
70930;BME280;58588;48.102;19.682;2023-08-08T15:35:23;99528.31;;;31.55;49.77
70930;BME280;58588;48.102;19.682;2023-08-08T15:38:27;99525.13;;;31.31;51.19
70930;BME280;58588;48.102;19.682;2023-08-08T15:41:29;99523.81;;;32.11;47.58
70930;BME280;58588;48.102;19.682;2023-08-08T15:44:31;99523.13;;;30.91;50.30
70930;BME280;58588;48.102;19.682;2023-08-08T15:47:32;99520.94;;;30.80;50.23
70930;BME280;58588;48.102;19.682;2023-08-08T15:50:34;99520.41;;;29.88;51.55